Time;durP1;ratioP1;P1;durP2;ratioP2;P2;SDS_P1;SDS_P2;PMS_P1;PMS_P2;Temp;Humidity;BMP_temperature;BMP_pressure;BME280_temperature;BME280_humidity;BME280_pressure;Samples;Min_cycle;Max_cycle;Signal;HPM_P1;HPM_P2
2022/08/03 00:01:25;;;;;;;5.53;4.93;;;15.30;99.90;;;;;;8344488;28;20183;-67
2022/08/03 00:05:26;;;;;;;6.13;5.63;;;15.20;99.90;;;;;;8340938;28;20221;-66
2022/08/03 00:09:27;;;;;;;6.07;5.10;;;15.20;99.90;;;;;;8336244;28;20213;-65
2022/08/03 00:13:28;;;;;;;5.23;4.73;;;15.10;99.90;;;;;;8340375;28;20232;-65
2022/08/03 00:17:29;;;;;;;5.63;4.93;;;15.10;99.90;;;;;;8339913;28;20229;-65
2022/08/03 00:21:29;;;;;;;5.70;5.20;;;15.10;99.90;;;;;;8341010;28;20277;-67
2022/08/03 00:25:30;;;;;;;5.53;4.97;;;15.10;99.90;;;;;;8334602;28;20214;-65
2022/08/03 00:29:31;;;;;;;5.73;5.17;;;15.10;99.90;;;;;;8333277;28;20231;-65
2022/08/03 00:33:32;;;;;;;6.03;5.43;;;15.10;99.90;;;;;;8341605;28;20182;-66
2022/08/03 00:37:33;;;;;;;5.87;5.33;;;15.10;99.90;;;;;;8334411;28;20175;-65
2022/08/03 00:41:34;;;;;;;5.83;5.33;;;15.10;99.90;;;;;;8336496;28;20186;-65
2022/08/03 00:45:38;;;;;;;5.70;4.80;;;15.10;99.90;;;;;;8337567;28;20190;-68
2022/08/03 00:49:40;;;;;;;6.03;4.97;;;15.10;99.90;;;;;;8341988;28;20214;-75
2022/08/03 00:53:41;;;;;;;5.63;5.13;;;15.20;99.90;;;;;;8337764;28;20175;-66
2022/08/03 00:57:42;;;;;;;5.90;5.30;;;15.20;99.90;;;;;;8353854;28;20193;-67
2022/08/03 01:01:43;;;;;;;5.90;5.17;;;15.20;99.90;;;;;;8338389;28;20186;-67
2022/08/03 01:05:50;;;;;;;6.97;5.37;;;15.30;99.90;;;;;;8337638;28;20189;-67
2022/08/03 01:10:12;;;;;;;6.57;5.63;;;15.30;99.90;;;;;;8347333;28;20205;-66
2022/08/03 01:14:19;;;;;;;5.13;4.63;;;15.20;99.90;;;;;;8344218;28;20201;-67
2022/08/03 01:18:37;;;;;;;7.57;5.87;;;15.20;99.90;;;;;;8358278;28;20272;-67
2022/08/03 01:22:51;;;;;;;6.40;5.40;;;15.20;99.90;;;;;;8337830;28;20182;-66
2022/08/03 01:27:06;;;;;;;5.53;5.03;;;15.20;99.90;;;;;;8344919;28;20177;-67
2022/08/03 01:31:10;;;;;;;6.00;5.40;;;15.20;99.90;;;;;;8342078;28;20238;-66
2022/08/03 01:35:15;;;;;;;6.00;5.40;;;15.20;99.90;;;;;;8343547;28;20170;-67
2022/08/03 01:39:18;;;;;;;6.03;5.43;;;15.20;99.90;;;;;;8360975;28;20270;-67
2022/08/03 01:43:22;;;;;;;6.13;4.97;;;15.10;99.90;;;;;;8339097;28;20213;-67
2022/08/03 01:47:26;;;;;;;6.10;5.50;;;15.10;99.90;;;;;;8338117;28;20186;-65
2022/08/03 01:51:28;;;;;;;5.63;5.13;;;15.10;99.90;;;;;;8356139;28;20216;-66
2022/08/03 01:55:32;;;;;;;5.67;4.93;;;15.00;99.90;;;;;;8342159;28;20188;-66
2022/08/03 01:59:35;;;;;;;5.87;5.27;;;15.00;99.90;;;;;;8352644;28;20186;-66
2022/08/03 02:03:39;;;;;;;5.60;5.10;;;15.00;99.90;;;;;;8344273;28;20190;-66
2022/08/03 02:07:42;;;;;;;5.30;4.80;;;14.90;99.90;;;;;;8341065;28;20174;-66
2022/08/03 02:11:46;;;;;;;5.27;4.50;;;14.90;99.90;;;;;;8354786;28;20197;-66
2022/08/03 02:15:48;;;;;;;5.63;5.00;;;14.90;99.90;;;;;;8338523;28;20213;-66
2022/08/03 02:19:50;;;;;;;5.30;4.80;;;14.90;99.90;;;;;;8339179;28;20173;-66
2022/08/03 02:23:51;;;;;;;5.50;5.00;;;14.90;99.90;;;;;;8338297;28;20208;-66
2022/08/03 02:28:05;;;;;;;4.87;4.37;;;14.90;99.90;;;;;;8352936;28;20178;-66
2022/08/03 02:32:13;;;;;;;5.07;4.67;;;14.90;99.90;;;;;;8353772;28;20216;-67
2022/08/03 02:36:15;;;;;;;5.47;4.97;;;14.90;99.90;;;;;;8345573;28;20178;-67
2022/08/03 02:40:19;;;;;;;5.03;4.47;;;14.90;99.90;;;;;;8339687;28;20182;-66
2022/08/03 02:44:25;;;;;;;5.93;5.10;;;14.90;99.90;;;;;;8339786;28;20216;-67
2022/08/03 02:48:29;;;;;;;5.43;4.93;;;14.90;99.90;;;;;;8344692;28;20208;-66
2022/08/03 02:52:33;;;;;;;5.20;4.67;;;14.90;99.90;;;;;;8340499;28;20186;-69
2022/08/03 02:56:35;;;;;;;4.67;4.20;;;15.00;99.90;;;;;;8335528;28;20182;-66
2022/08/03 03:00:37;;;;;;;5.50;4.73;;;15.00;99.90;;;;;;8343946;28;20217;-66
2022/08/03 03:04:39;;;;;;;5.00;4.50;;;15.00;99.90;;;;;;8336828;28;20181;-66
2022/08/03 03:08:40;;;;;;;6.03;4.53;;;15.00;99.90;;;;;;8341273;28;20297;-67
2022/08/03 03:12:42;;;;;;;5.00;4.43;;;15.00;99.90;;;;;;8335192;28;20205;-66
2022/08/03 03:16:45;;;;;;;5.50;5.00;;;15.00;99.90;;;;;;8337448;28;20243;-66
2022/08/03 03:20:50;;;;;;;5.33;4.33;;;14.90;99.90;;;;;;8335808;28;20197;-66
2022/08/03 03:24:53;;;;;;;5.37;4.83;;;14.90;99.90;;;;;;8337273;28;20185;-66
2022/08/03 03:28:54;;;;;;;5.10;4.60;;;14.80;99.90;;;;;;8343288;28;20253;-66
2022/08/03 03:32:57;;;;;;;6.27;5.20;;;14.80;99.90;;;;;;8337164;28;20174;-66
2022/08/03 03:37:04;;;;;;;5.80;5.23;;;14.70;99.90;;;;;;8337699;28;20214;-66
2022/08/03 03:41:05;;;;;;;5.90;5.30;;;14.70;99.90;;;;;;8339073;28;20216;-66
2022/08/03 03:45:07;;;;;;;5.83;5.33;;;14.70;99.90;;;;;;8338737;28;20186;-66
2022/08/03 03:49:09;;;;;;;5.97;5.20;;;14.70;99.90;;;;;;8334756;28;20236;-67
2022/08/03 03:53:13;;;;;;;5.33;4.93;;;14.70;99.90;;;;;;8336926;28;20193;-66
2022/08/03 03:57:14;;;;;;;5.57;5.07;;;14.80;99.90;;;;;;8351841;28;20195;-66
2022/08/03 04:01:15;;;;;;;6.40;5.80;;;14.80;99.90;;;;;;8354442;28;20296;-67
2022/08/03 04:14:12;;;;;;;5.93;4.90;;;16.10;99.90;;;;;;8335644;28;20213;-67
2022/08/03 04:18:14;;;;;;;5.33;4.53;;;17.00;99.90;;;;;;8336656;28;20273;-67
2022/08/03 04:22:18;;;;;;;5.60;4.33;;;17.80;99.90;;;;;;8335664;28;20194;-67
2022/08/03 04:26:21;;;;;;;4.20;3.70;;;18.30;99.90;;;;;;8337401;28;20193;-67
2022/08/03 04:30:24;;;;;;;4.03;3.73;;;18.70;1.00;;;;;;8337703;28;20245;-67
2022/08/03 04:34:26;;;;;;;4.50;3.40;;;19.10;99.90;;;;;;8344919;28;20193;-67
2022/08/03 04:38:30;;;;;;;4.30;3.73;;;19.40;99.90;;;;;;8342264;28;20196;-67
2022/08/03 04:42:32;;;;;;;4.33;3.30;;;19.90;1.00;;;;;;8339310;28;20237;-67
2022/08/03 04:46:38;;;;;;;3.70;3.30;;;20.40;1.00;;;;;;8341349;28;20190;-67
2022/08/03 04:50:40;;;;;;;5.80;4.07;;;20.80;99.90;;;;;;8341843;28;20206;-67
2022/08/03 04:54:42;;;;;;;4.00;3.47;;;21.20;99.90;;;;;;8340761;28;20182;-67
2022/08/03 04:58:44;;;;;;;4.10;3.70;;;21.30;99.90;;;;;;8346866;28;20232;-67
2022/08/03 05:02:44;;;;;;;4.50;3.60;;;21.40;99.90;;;;;;8356780;28;20241;-67
2022/08/03 05:06:45;;;;;;;3.87;3.43;;;20.80;99.90;;;;;;8339895;28;20280;-67
2022/08/03 05:10:46;;;;;;;4.07;3.73;;;20.00;99.90;;;;;;8337382;28;20226;-67
2022/08/03 05:14:47;;;;;;;3.80;3.50;;;19.50;1.00;;;;;;8343336;28;20179;-67
2022/08/03 05:18:48;;;;;;;5.97;3.97;;;19.40;51.60;;;;;;8340306;28;20208;-67
2022/08/03 05:22:48;;;;;;;8.67;4.37;;;19.50;99.90;;;;;;8340716;28;20292;-67
2022/08/03 05:26:49;;;;;;;4.27;3.80;;;19.70;86.00;;;;;;8340736;28;20218;-67
2022/08/03 05:30:53;;;;;;;3.50;3.20;;;19.80;67.70;;;;;;8341425;28;20259;-67
2022/08/03 05:34:54;;;;;;;3.90;3.50;;;20.00;20.80;;;;;;8339625;28;20178;-67
2022/08/03 05:38:54;;;;;;;3.37;3.03;;;20.30;1.00;;;;;;8352145;28;20182;-67
2022/08/03 05:42:56;;;;;;;3.53;3.23;;;20.50;1.00;;;;;;8339004;28;20180;-68
2022/08/03 05:46:58;;;;;;;5.13;4.60;;;20.80;1.00;;;;;;8345053;28;20264;-67
2022/08/03 05:50:58;;;;;;;5.60;5.00;;;20.90;99.90;;;;;;8340023;28;20206;-68
2022/08/03 05:54:59;;;;;;;6.53;5.70;;;21.10;99.90;;;;;;8340318;28;20213;-65
2022/08/03 05:59:00;;;;;;;6.13;5.53;;;21.30;99.90;;;;;;8343612;28;20182;-66
2022/08/03 06:03:01;;;;;;;5.47;4.97;;;21.50;18.20;;;;;;8335559;28;20188;-65
2022/08/03 06:07:02;;;;;;;6.77;4.97;;;21.70;1.00;;;;;;8339842;28;20181;-65
2022/08/03 06:11:03;;;;;;;5.73;4.13;;;22.00;1.00;;;;;;8340044;28;20259;-66
2022/08/03 06:15:04;;;;;;;4.30;3.90;;;22.30;99.90;;;;;;8336041;28;20222;-65
2022/08/03 06:19:05;;;;;;;4.77;4.37;;;22.50;99.90;;;;;;8348254;28;20190;-66
2022/08/03 06:23:06;;;;;;;4.50;3.67;;;22.70;99.90;;;;;;8341892;28;20194;-65
2022/08/03 06:27:07;;;;;;;7.03;3.47;;;22.90;99.90;;;;;;8343073;28;20182;-65
2022/08/03 06:31:07;;;;;;;5.13;4.30;;;23.20;99.90;;;;;;8343426;28;20288;-65
2022/08/03 06:35:10;;;;;;;4.50;4.10;;;23.30;99.90;;;;;;8337542;28;20178;-66
2022/08/03 06:39:12;;;;;;;3.23;2.87;;;23.40;99.90;;;;;;8352423;28;20281;-65
2022/08/03 06:43:14;;;;;;;4.07;2.67;;;23.70;77.30;;;;;;8339030;28;20186;-66
2022/08/03 06:47:15;;;;;;;3.37;2.53;;;23.90;39.30;;;;;;8343987;28;20254;-66
2022/08/03 06:51:15;;;;;;;2.70;2.20;;;24.20;1.40;;;;;;8339434;28;20206;-66
2022/08/03 06:55:16;;;;;;;2.33;2.13;;;24.40;1.00;;;;;;8343134;28;20193;-66
2022/08/03 06:59:17;;;;;;;3.63;1.93;;;24.60;1.00;;;;;;8340352;28;20254;-67
2022/08/03 07:03:18;;;;;;;2.30;2.10;;;24.80;1.00;;;;;;8338324;28;20210;-68
2022/08/03 07:07:19;;;;;;;2.17;1.88;;;25.00;1.00;;;;;;8339842;28;20186;-66
2022/08/03 07:11:20;;;;;;;2.35;2.15;;;25.20;1.00;;;;;;8337490;28;20218;-66
2022/08/03 07:15:22;;;;;;;2.70;1.88;;;25.40;1.00;;;;;;8338190;28;20197;-66
2022/08/03 07:19:22;;;;;;;2.20;2.00;;;25.60;1.00;;;;;;8338980;28;20261;-66
2022/08/03 07:23:24;;;;;;;2.35;2.00;;;25.70;1.00;;;;;;8334889;28;20221;-66
2022/08/03 07:27:28;;;;;;;1.83;1.52;;;25.90;1.00;;;;;;8342029;28;20186;-66
2022/08/03 07:31:29;;;;;;;3.55;1.70;;;26.00;1.00;;;;;;8338758;28;20295;-66
2022/08/03 07:35:30;;;;;;;2.22;1.65;;;26.20;1.00;;;;;;8337233;28;20177;-66
2022/08/03 07:39:36;;;;;;;2.03;1.80;;;26.40;1.00;;;;;;8337607;28;20181;-66
2022/08/03 07:43:37;;;;;;;4.15;2.22;;;26.50;1.00;;;;;;8341211;28;20187;-66
2022/08/03 07:47:38;;;;;;;4.95;2.05;;;26.70;1.00;;;;;;8336380;28;20211;-66
2022/08/03 07:51:39;;;;;;;3.65;2.22;;;26.80;1.00;;;;;;8338790;28;20206;-66
2022/08/03 07:55:43;;;;;;;1.73;1.63;;;27.00;1.00;;;;;;8333983;28;20700;-66
2022/08/03 07:59:46;;;;;;;2.65;2.13;;;27.10;1.00;;;;;;8339013;28;20188;-66
2022/08/03 08:03:47;;;;;;;1.55;1.45;;;27.20;1.00;;;;;;8334695;28;20348;-66
2022/08/03 08:07:48;;;;;;;3.15;2.05;;;27.40;1.00;;;;;;8341528;28;20232;-66
2022/08/03 08:11:49;;;;;;;4.78;1.90;;;27.40;1.00;;;;;;8340921;28;20225;-66
2022/08/03 08:15:50;;;;;;;2.60;1.88;;;27.50;1.00;;;;;;8335492;28;20193;-69
2022/08/03 08:19:50;;;;;;;2.25;1.73;;;27.70;1.00;;;;;;8333649;28;20217;-66
2022/08/03 08:23:51;;;;;;;1.77;1.58;;;27.90;1.00;;;;;;8335937;28;20178;-67
2022/08/03 08:27:52;;;;;;;2.20;1.42;;;28.00;1.00;;;;;;8354339;28;20235;-66
2022/08/03 08:31:53;;;;;;;3.20;1.65;;;28.30;1.00;;;;;;8333607;28;20203;-66
2022/08/03 08:35:54;;;;;;;2.42;1.60;;;28.30;1.00;;;;;;8333821;28;20184;-66
2022/08/03 08:39:55;;;;;;;2.15;1.83;;;28.40;1.00;;;;;;8335196;28;20178;-66
2022/08/03 08:43:57;;;;;;;3.05;1.67;;;28.50;1.00;;;;;;8336860;28;20209;-66
2022/08/03 08:48:01;;;;;;;2.65;1.45;;;28.60;1.00;;;;;;8333849;28;20204;-66
2022/08/03 08:52:04;;;;;;;3.55;1.55;;;28.80;1.00;;;;;;8338145;28;20178;-66
2022/08/03 08:56:09;;;;;;;1.33;1.23;;;28.80;1.00;;;;;;8337706;28;20178;-66
2022/08/03 09:00:13;;;;;;;1.92;1.25;;;29.00;1.00;;;;;;8340237;28;20280;-66
2022/08/03 09:04:14;;;;;;;3.25;1.45;;;29.20;1.00;;;;;;8336897;28;20178;-66
2022/08/03 09:08:15;;;;;;;2.45;1.48;;;29.20;1.00;;;;;;8332822;28;20202;-69
2022/08/03 09:12:16;;;;;;;2.33;1.40;;;29.40;1.00;;;;;;8332749;28;20241;-66
2022/08/03 09:16:21;;;;;;;1.00;0.88;;;29.30;1.00;;;;;;8331837;28;20190;-66
2022/08/03 09:20:24;;;;;;;1.80;1.20;;;29.40;1.00;;;;;;8342383;28;20253;-66
2022/08/03 09:24:24;;;;;;;2.08;1.40;;;29.50;1.00;;;;;;8344568;28;20170;-66
2022/08/03 09:28:34;;;;;;;3.45;1.27;;;29.60;1.00;;;;;;8339851;28;20259;-66
2022/08/03 09:32:36;;;;;;;1.33;1.20;;;29.70;1.00;;;;;;8337530;28;20327;-66
2022/08/03 09:36:45;;;;;;;1.50;1.20;;;29.70;1.00;;;;;;8340619;28;20253;-66
2022/08/03 09:40:45;;;;;;;1.75;1.10;;;29.80;1.00;;;;;;8348671;28;20193;-65
2022/08/03 09:44:48;;;;;;;2.17;1.30;;;29.90;1.00;;;;;;8343882;28;20186;-65
2022/08/03 09:48:49;;;;;;;1.33;1.20;;;30.00;1.00;;;;;;8341782;28;20259;-65
2022/08/03 09:52:50;;;;;;;3.42;1.38;;;30.20;1.00;;;;;;8339411;28;20234;-65
2022/08/03 09:56:51;;;;;;;1.92;1.40;;;30.30;99.90;;;;;;8341499;28;20203;-65
2022/08/03 10:00:53;;;;;;;1.65;1.35;;;30.20;99.90;;;;;;8347221;28;20219;-65
2022/08/03 10:04:54;;;;;;;1.45;1.10;;;30.20;1.00;;;;;;8350312;28;20190;-65
2022/08/03 10:09:10;;;;;;;1.40;1.30;;;30.40;99.90;;;;;;8338807;28;20339;-62
2022/08/03 10:13:13;;;;;;;1.75;1.40;;;30.50;1.00;;;;;;8341829;28;20201;-65
2022/08/03 10:17:14;;;;;;;3.00;1.35;;;30.70;1.00;;;;;;8344431;28;20170;-65
2022/08/03 10:21:18;;;;;;;3.13;1.83;;;30.90;1.00;;;;;;8347633;28;20182;-64
2022/08/03 10:25:19;;;;;;;3.63;1.65;;;31.10;99.90;;;;;;8339797;28;20191;-65
2022/08/03 10:29:24;;;;;;;3.35;1.73;;;31.10;99.90;;;;;;8340136;28;20209;-63
2022/08/03 10:33:30;;;;;;;3.90;1.75;;;31.10;99.90;;;;;;8336569;28;20182;-65
2022/08/03 10:37:39;;;;;;;2.38;1.80;;;31.20;99.90;;;;;;8346563;28;20186;-63
2022/08/03 10:41:43;;;;;;;3.33;1.52;;;31.40;99.90;;;;;;8344191;28;20295;-64
2022/08/03 10:45:45;;;;;;;1.75;1.58;;;31.20;99.90;;;;;;8338255;28;20193;-66
2022/08/03 10:49:48;;;;;;;1.80;1.60;;;31.20;99.90;;;;;;8337843;28;20212;-64
2022/08/03 10:53:49;;;;;;;1.92;1.58;;;31.40;99.90;;;;;;8339701;28;20177;-65
2022/08/03 10:57:54;;;;;;;6.03;1.55;;;31.20;99.90;;;;;;8343316;28;20204;-65
2022/08/03 11:01:56;;;;;;;1.50;1.40;;;31.30;99.90;;;;;;8342700;28;20268;-64
2022/08/03 11:06:20;;;;;;;2.10;1.50;;;31.60;99.90;;;;;;8339337;28;20304;-63
2022/08/03 11:10:32;;;;;;;2.20;1.50;;;31.90;99.90;;;;;;8338655;28;20206;-62
2022/08/03 11:14:46;;;;;;;4.20;1.55;;;32.00;99.90;;;;;;8337595;28;20200;-65
2022/08/03 11:19:02;;;;;;;2.40;1.40;;;32.10;99.90;;;;;;8343916;28;20191;-65
2022/08/03 11:23:05;;;;;;;1.27;1.17;;;32.20;99.90;;;;;;8336275;28;20293;-64
2022/08/03 11:27:18;;;;;;;2.35;1.10;;;32.20;99.90;;;;;;8338345;28;20186;-64
2022/08/03 11:31:22;;;;;;;1.00;0.90;;;32.40;99.90;;;;;;8339845;28;20202;-65
2022/08/03 11:35:30;;;;;;;3.53;1.45;;;32.70;99.90;;;;;;8337270;28;20185;-65
2022/08/03 11:39:45;;;;;;;2.75;1.30;;;32.70;99.90;;;;;;8336573;28;20185;-65
2022/08/03 11:43:46;;;;;;;2.45;1.17;;;32.90;99.90;;;;;;8343699;28;20187;-64
2022/08/03 11:47:52;;;;;;;1.67;1.20;;;32.90;99.90;;;;;;8335457;28;20208;-64
2022/08/03 11:51:53;;;;;;;1.88;1.52;;;32.90;99.90;;;;;;8344644;28;20206;-65
2022/08/03 11:55:58;;;;;;;4.10;1.50;;;32.90;99.90;;;;;;8334342;28;20227;-74
2022/08/03 11:59:59;;;;;;;1.42;1.08;;;33.00;99.90;;;;;;8339938;28;20182;-65
2022/08/03 12:04:04;;;;;;;4.18;1.40;;;33.30;99.90;;;;;;8333740;28;20187;-65
2022/08/03 12:08:06;;;;;;;3.15;1.35;;;33.20;99.90;;;;;;8353779;28;20201;-65
2022/08/03 12:12:07;;;;;;;2.30;1.17;;;33.40;99.90;;;;;;8332832;28;20213;-65
2022/08/03 12:16:08;;;;;;;1.10;1.00;;;33.40;99.90;;;;;;8335654;28;20276;-63
2022/08/03 12:20:21;;;;;;;4.65;1.20;;;33.30;99.90;;;;;;8338158;28;20186;-64
2022/08/03 12:24:22;;;;;;;2.20;1.20;;;33.40;99.90;;;;;;8332118;28;20204;-63
2022/08/03 12:28:23;;;;;;;2.17;1.20;;;33.50;99.90;;;;;;8334622;28;20451;-64
2022/08/03 12:32:26;;;;;;;3.83;1.08;;;33.50;99.90;;;;;;8337456;28;20179;-65
2022/08/03 12:36:29;;;;;;;2.90;1.40;;;33.60;99.90;;;;;;8354936;28;20309;-65
2022/08/03 12:40:30;;;;;;;1.70;1.30;;;33.60;99.90;;;;;;8332670;28;20186;-65
2022/08/03 12:44:35;;;;;;;1.73;1.40;;;33.70;99.90;;;;;;8345282;28;20268;-63
2022/08/03 12:48:36;;;;;;;2.90;1.20;;;33.80;99.90;;;;;;8342305;28;20206;-63
2022/08/03 12:52:44;;;;;;;1.20;1.10;;;33.90;99.90;;;;;;8340593;28;20304;-63
2022/08/03 12:56:57;;;;;;;1.58;1.13;;;34.00;99.90;;;;;;8342070;28;20182;-62
2022/08/03 13:00:58;;;;;;;2.38;1.13;;;33.60;99.90;;;;;;8346107;28;20178;-62
2022/08/03 13:05:10;;;;;;;1.92;1.10;;;33.30;99.90;;;;;;8342975;28;20189;-63
2022/08/03 13:09:11;;;;;;;2.95;1.10;;;33.00;99.90;;;;;;8341567;28;20202;-64
2022/08/03 13:13:13;;;;;;;1.33;1.23;;;32.60;99.90;;;;;;8342334;28;20201;-62
2022/08/03 13:17:15;;;;;;;1.98;1.35;;;32.30;99.90;;;;;;8342829;28;20202;-63
2022/08/03 13:21:16;;;;;;;3.83;1.23;;;32.10;99.90;;;;;;8357428;28;20178;-63
2022/08/03 13:25:17;;;;;;;1.48;1.38;;;31.90;99.90;;;;;;8342133;28;20190;-63
2022/08/03 13:29:18;;;;;;;1.30;1.20;;;32.30;99.90;;;;;;8342872;28;20280;-63
2022/08/03 13:33:19;;;;;;;1.45;1.25;;;32.70;99.90;;;;;;8344002;28;20185;-64
2022/08/03 13:37:20;;;;;;;2.20;1.20;;;33.00;99.90;;;;;;8339434;28;20178;-64
2022/08/03 13:41:21;;;;;;;4.93;1.20;;;32.90;99.90;;;;;;8357043;28;20177;-64
2022/08/03 13:45:23;;;;;;;1.63;1.30;;;32.90;99.90;;;;;;8343972;28;20192;-62
2022/08/03 13:49:24;;;;;;;2.35;1.00;;;32.80;99.90;;;;;;8344909;28;20198;-64
2022/08/03 13:53:24;;;;;;;1.40;1.30;;;32.90;99.90;;;;;;8339288;28;20247;-62
2022/08/03 13:57:25;;;;;;;2.75;1.10;;;32.70;99.90;;;;;;8344743;28;20205;-64
2022/08/03 14:01:27;;;;;;;3.28;1.30;;;32.90;99.90;;;;;;8344166;28;20182;-63
2022/08/03 14:05:30;;;;;;;2.00;1.05;;;33.10;99.90;;;;;;8338093;28;20191;-64
2022/08/03 14:09:31;;;;;;;1.48;1.38;;;33.10;99.90;;;;;;8339976;28;20537;-64
2022/08/03 14:13:32;;;;;;;2.92;1.10;;;33.30;99.90;;;;;;8338829;28;20193;-64
2022/08/03 14:17:32;;;;;;;1.42;1.10;;;33.30;99.90;;;;;;8340034;28;20208;-64
2022/08/03 14:21:34;;;;;;;1.98;1.40;;;33.20;99.90;;;;;;8351135;28;20182;-64
2022/08/03 14:25:35;;;;;;;1.63;1.13;;;33.20;99.90;;;;;;8342812;28;20182;-64
2022/08/03 14:29:35;;;;;;;1.35;1.02;;;33.10;99.90;;;;;;8339066;28;20212;-64
2022/08/03 14:33:36;;;;;;;1.55;1.38;;;32.80;99.90;;;;;;8348839;28;20239;-63
2022/08/03 14:37:37;;;;;;;1.17;1.08;;;32.70;99.90;;;;;;8348457;28;20269;-63
2022/08/03 14:41:38;;;;;;;1.48;1.10;;;32.70;99.90;;;;;;8341044;28;20190;-64
2022/08/03 14:45:39;;;;;;;2.25;1.33;;;32.50;99.90;;;;;;8350621;28;20186;-64
2022/08/03 14:49:41;;;;;;;1.50;1.30;;;32.40;99.90;;;;;;8343733;28;20225;-64
2022/08/03 14:53:41;;;;;;;1.45;1.20;;;32.40;99.90;;;;;;8352989;28;20186;-64
2022/08/03 14:57:45;;;;;;;1.90;1.10;;;32.50;99.90;;;;;;8342299;28;20174;-63
2022/08/03 15:01:46;;;;;;;1.77;1.10;;;32.50;99.90;;;;;;8368291;28;20196;-64
2022/08/03 15:05:46;;;;;;;1.38;1.20;;;32.50;99.90;;;;;;8342190;28;20182;-64
2022/08/03 15:09:47;;;;;;;2.35;1.40;;;32.70;99.90;;;;;;8348389;28;20239;-63
2022/08/03 15:13:51;;;;;;;5.25;1.10;;;32.70;99.90;;;;;;8353520;28;20232;-64
2022/08/03 15:17:52;;;;;;;5.15;1.27;;;32.80;99.90;;;;;;8343543;28;20181;-71
2022/08/03 15:21:53;;;;;;;1.67;1.25;;;32.90;99.90;;;;;;8344610;28;20189;-64
2022/08/03 15:25:53;;;;;;;3.00;1.20;;;33.00;99.90;;;;;;8342709;28;20193;-63
2022/08/03 15:29:54;;;;;;;3.40;1.20;;;33.10;99.90;;;;;;8345442;28;20282;-64
2022/08/03 15:33:55;;;;;;;2.08;1.40;;;33.10;99.90;;;;;;8337264;28;20178;-64
2022/08/03 15:37:56;;;;;;;1.58;1.25;;;33.10;99.90;;;;;;8343686;28;20174;-64
2022/08/03 15:41:56;;;;;;;1.58;1.30;;;33.00;99.90;;;;;;8347320;28;20182;-64
2022/08/03 15:45:57;;;;;;;1.50;1.20;;;32.70;99.90;;;;;;8357756;28;20177;-63
2022/08/03 15:49:58;;;;;;;1.70;1.23;;;32.50;99.90;;;;;;8344829;28;20282;-64
2022/08/03 15:53:59;;;;;;;1.45;1.33;;;32.40;99.90;;;;;;8338290;28;20209;-63
2022/08/03 15:58:00;;;;;;;1.50;1.30;;;32.40;99.90;;;;;;8341238;28;20182;-64
2022/08/03 16:02:01;;;;;;;2.08;1.30;;;32.30;99.90;;;;;;8337351;28;20206;-64
2022/08/03 16:06:06;;;;;;;4.85;1.10;;;32.00;99.90;;;;;;8353359;28;20190;-63
2022/08/03 16:10:17;;;;;;;1.67;1.58;;;31.80;99.90;;;;;;8335716;28;20341;-63
2022/08/03 16:14:17;;;;;;;3.05;1.35;;;31.80;99.90;;;;;;8345715;28;20212;-63
2022/08/03 16:18:19;;;;;;;2.90;1.20;;;31.90;99.90;;;;;;8345759;28;20177;-64
2022/08/03 16:22:20;;;;;;;4.03;1.20;;;32.00;99.90;;;;;;8355095;28;20178;-63
2022/08/03 16:26:20;;;;;;;5.07;3.08;;;32.00;99.90;;;;;;8345737;28;20487;-64
2022/08/03 16:30:21;;;;;;;1.65;1.50;;;31.90;99.90;;;;;;8343003;28;20553;-65
2022/08/03 16:34:22;;;;;;;1.48;1.17;;;31.80;99.90;;;;;;8350962;28;20181;-63
2022/08/03 16:38:24;;;;;;;1.48;1.38;;;31.80;99.90;;;;;;8346437;28;20185;-62
2022/08/03 16:42:25;;;;;;;1.20;1.10;;;31.80;99.90;;;;;;8347385;28;20252;-64
2022/08/03 16:46:25;;;;;;;1.38;1.27;;;31.80;99.90;;;;;;8348145;28;20178;-63
2022/08/03 16:50:26;;;;;;;3.00;1.40;;;31.60;99.90;;;;;;8344270;28;20310;-64
2022/08/03 16:54:27;;;;;;;5.10;1.70;;;31.50;99.90;;;;;;8345493;28;20265;-64
2022/08/03 16:58:28;;;;;;;1.40;1.17;;;31.40;99.90;;;;;;8342314;28;20175;-64
2022/08/03 17:02:29;;;;;;;1.60;1.38;;;31.30;99.90;;;;;;8343888;28;20188;-64
2022/08/03 17:06:35;;;;;;;3.17;1.40;;;31.20;99.90;;;;;;8344252;28;20178;-64
2022/08/03 17:10:37;;;;;;;1.95;1.50;;;31.00;99.90;;;;;;8349164;28;20487;-64
2022/08/03 17:14:39;;;;;;;1.60;1.42;;;30.90;99.90;;;;;;8359830;28;20228;-64
2022/08/03 17:18:58;;;;;;;1.63;1.20;;;30.80;99.90;;;;;;8355729;28;20186;-64
2022/08/03 17:23:07;;;;;;;2.00;1.30;;;30.80;99.90;;;;;;8342108;28;20395;-64
2022/08/03 17:27:13;;;;;;;2.20;1.25;;;30.70;99.90;;;;;;8342639;28;20186;-64
2022/08/03 17:31:22;;;;;;;1.60;1.50;;;30.70;99.90;;;;;;8345119;28;20284;-64
2022/08/03 17:35:22;;;;;;;2.55;1.48;;;30.70;99.90;;;;;;8348985;28;20178;-64
2022/08/03 17:39:25;;;;;;;3.30;1.50;;;31.10;99.90;;;;;;8342538;28;20560;-64
2022/08/03 17:43:26;;;;;;;1.58;1.38;;;31.70;99.90;;;;;;8342809;28;20181;-64
2022/08/03 17:47:27;;;;;;;4.03;1.70;;;32.40;99.90;;;;;;8338699;28;20183;-64
2022/08/03 17:51:31;;;;;;;1.77;1.40;;;32.70;99.90;;;;;;8346433;28;20241;-64
2022/08/03 17:55:32;;;;;;;1.52;1.42;;;32.90;99.90;;;;;;8337690;28;20240;-63
2022/08/03 17:59:48;;;;;;;1.50;1.38;;;33.10;99.90;;;;;;8343301;28;20474;-64
2022/08/03 18:03:53;;;;;;;3.58;1.58;;;33.30;99.90;;;;;;8347442;28;20197;-65
2022/08/03 18:07:56;;;;;;;1.65;1.50;;;33.30;99.90;;;;;;8343179;28;20194;-63
2022/08/03 18:12:00;;;;;;;1.75;1.65;;;33.10;99.90;;;;;;8348967;28;20214;-63
2022/08/03 18:16:03;;;;;;;2.42;1.40;;;32.60;99.90;;;;;;8347265;28;20209;-63
2022/08/03 18:20:05;;;;;;;1.75;1.65;;;31.70;99.90;;;;;;8355393;28;20194;-63
2022/08/03 18:24:07;;;;;;;1.73;1.60;;;30.60;99.90;;;;;;8351515;28;20188;-63
2022/08/03 18:28:10;;;;;;;1.83;1.73;;;29.70;99.90;;;;;;8356981;28;20197;-63
2022/08/03 18:32:11;;;;;;;1.73;1.63;;;28.90;99.90;;;;;;8356277;28;20263;-63
2022/08/03 18:36:16;;;;;;;3.38;1.83;;;28.30;1.00;;;;;;8344658;28;20174;-63
2022/08/03 18:40:18;;;;;;;1.83;1.70;;;27.70;1.00;;;;;;8339845;28;20183;-63
2022/08/03 18:44:20;;;;;;;4.30;2.05;;;27.20;1.00;;;;;;8343507;28;20189;-63
2022/08/03 18:48:39;;;;;;;2.30;2.10;;;26.80;1.00;;;;;;8337142;28;20213;-63
2022/08/03 18:52:42;;;;;;;2.42;2.20;;;26.30;1.00;;;;;;8340418;28;20194;-63
2022/08/03 18:56:50;;;;;;;2.33;2.13;;;25.90;1.00;;;;;;8338781;28;20175;-63
2022/08/03 19:01:03;;;;;;;2.60;2.00;;;25.60;1.00;;;;;;8342247;28;20178;-63
2022/08/03 19:05:07;;;;;;;2.10;2.00;;;25.30;1.00;;;;;;8343325;28;20198;-63
2022/08/03 19:09:20;;;;;;;2.10;2.00;;;25.00;1.00;;;;;;8339921;28;20210;-65
2022/08/03 19:13:44;;;;;;;4.43;2.37;;;24.80;1.00;;;;;;8341077;28;20201;-65
2022/08/03 19:17:50;;;;;;;2.70;2.50;;;24.60;1.00;;;;;;8341762;28;20284;-66
2022/08/03 19:21:52;;;;;;;2.70;2.50;;;24.30;1.00;;;;;;8342931;28;20192;-65
2022/08/03 19:25:53;;;;;;;2.30;2.10;;;24.10;1.00;;;;;;8335383;28;20220;-65
2022/08/03 19:29:56;;;;;;;3.10;2.30;;;23.90;1.00;;;;;;8335594;28;20202;-65
2022/08/03 19:33:59;;;;;;;2.40;2.20;;;23.80;9.80;;;;;;8337472;28;20183;-65
2022/08/03 19:38:00;;;;;;;2.30;2.10;;;23.60;24.70;;;;;;8336906;28;20204;-65
2022/08/03 19:42:08;;;;;;;2.30;2.10;;;23.50;38.10;;;;;;8337551;28;20272;-65
2022/08/03 19:46:11;;;;;;;2.50;2.30;;;23.30;42.70;;;;;;8351071;28;20188;-65
2022/08/03 19:50:13;;;;;;;4.03;2.80;;;23.20;51.30;;;;;;8351305;28;20255;-67
2022/08/03 19:54:15;;;;;;;3.40;2.30;;;23.10;41.40;;;;;;8333145;28;20175;-66
2022/08/03 19:58:17;;;;;;;2.87;2.53;;;23.00;24.70;;;;;;8335106;28;20273;-65
2022/08/03 20:02:20;;;;;;;2.80;2.57;;;22.90;13.20;;;;;;8337583;28;20186;-65
2022/08/03 20:06:22;;;;;;;3.97;2.97;;;22.90;13.20;;;;;;8335459;28;20244;-65
2022/08/03 20:10:23;;;;;;;3.97;2.33;;;22.80;4.20;;;;;;8335700;28;20213;-65
2022/08/03 20:14:25;;;;;;;3.47;2.57;;;22.80;8.60;;;;;;8340137;28;20222;-65
2022/08/03 20:18:26;;;;;;;2.97;2.03;;;22.70;16.90;;;;;;8340444;28;20220;-65
2022/08/03 20:22:33;;;;;;;3.30;3.00;;;22.60;40.60;;;;;;8339108;28;20183;-65
2022/08/03 20:26:36;;;;;;;3.37;2.70;;;22.50;91.10;;;;;;8336843;28;20308;-66
2022/08/03 20:30:37;;;;;;;3.50;2.43;;;22.40;99.90;;;;;;8337787;28;20301;-65
2022/08/03 20:34:38;;;;;;;2.80;2.60;;;22.30;96.80;;;;;;8333950;28;20182;-66
2022/08/03 20:38:39;;;;;;;3.07;2.40;;;22.20;76.40;;;;;;8338143;28;20272;-66
2022/08/03 20:42:40;;;;;;;3.33;2.50;;;22.20;80.40;;;;;;8337348;28;20201;-66
2022/08/03 20:46:41;;;;;;;5.27;2.67;;;22.10;77.70;;;;;;8353442;28;20183;-66
2022/08/03 20:50:43;;;;;;;4.03;2.60;;;22.10;79.70;;;;;;8340386;28;20214;-66
2022/08/03 20:54:45;;;;;;;2.50;2.30;;;22.10;80.70;;;;;;8338450;28;20178;-66
2022/08/03 20:58:46;;;;;;;2.93;2.47;;;22.00;79.80;;;;;;8339207;28;20472;-66
2022/08/03 21:02:46;;;;;;;4.00;2.40;;;22.00;76.30;;;;;;8334128;28;20320;-66
2022/08/03 21:07:01;;;;;;;4.57;2.63;;;21.90;88.60;;;;;;8345712;28;20189;-66
2022/08/03 21:11:09;;;;;;;3.97;2.67;;;21.80;99.90;;;;;;8334139;28;20304;-66
2022/08/03 21:15:14;;;;;;;2.47;2.27;;;21.70;99.90;;;;;;8341006;28;20265;-66
2022/08/03 21:19:17;;;;;;;3.97;2.77;;;21.60;99.90;;;;;;8343118;28;20183;-66